createdAt,value
2018-05-02T00:01:39.707Z,66.09
2018-05-02T00:04:08.507Z,65.66
2018-05-02T00:06:36.812Z,65.49
2018-05-02T00:09:06.009Z,65.28
2018-05-02T00:11:35.687Z,65.51
2018-05-02T00:14:04.023Z,65.30
2018-05-02T00:16:32.338Z,65.29
2018-05-02T00:19:00.727Z,65.82
2018-05-02T00:21:29.049Z,65.75
2018-05-02T00:23:57.603Z,66.42
2018-05-02T00:26:26.326Z,67.14
2018-05-02T00:28:54.686Z,66.97
2018-05-02T00:31:23.755Z,66.79
2018-05-02T00:33:52.118Z,66.84
2018-05-02T00:36:33.407Z,66.82
2018-05-02T00:39:01.790Z,66.34
2018-05-02T00:41:30.354Z,66.67
2018-05-02T00:43:59.499Z,67.00
2018-05-02T00:46:29.115Z,66.42
2018-05-02T00:49:17.141Z,66.05
2018-05-02T00:51:46.279Z,66.97
2018-05-02T00:54:14.579Z,67.33
2018-05-02T00:56:42.876Z,67.10
2018-05-02T00:59:11.269Z,67.05
2018-05-02T01:01:40.400Z,67.08
2018-05-02T01:04:08.798Z,67.29
2018-05-02T01:06:37.312Z,68.18
2018-05-02T01:09:05.645Z,68.70
2018-05-02T01:11:33.949Z,68.90
2018-05-02T01:14:02.302Z,68.21
2018-05-02T01:16:30.610Z,68.50
2018-05-02T01:18:58.908Z,68.50
2018-05-02T01:21:27.252Z,69.40
2018-05-02T01:23:55.567Z,68.79
2018-05-02T01:26:23.931Z,68.41
2018-05-02T01:28:52.735Z,68.37
2018-05-02T01:31:21.063Z,68.58
2018-05-02T01:33:49.396Z,68.99
2018-05-02T01:36:17.756Z,69.18
2018-05-02T01:38:46.103Z,69.46
2018-05-02T01:41:14.438Z,69.00
2018-05-02T01:43:42.788Z,69.90
2018-05-02T01:46:11.112Z,69.50
2018-05-02T01:51:39.479Z,69.43
2018-05-02T01:54:07.841Z,69.47
2018-05-02T01:56:36.162Z,68.65
2018-05-02T01:59:04.501Z,68.63
2018-05-02T02:01:32.873Z,69.10
2018-05-02T02:04:01.227Z,69.39
2018-05-02T02:06:29.554Z,69.69
2018-05-02T02:08:58.158Z,69.88
2018-05-02T02:11:26.476Z,69.48
2018-05-02T02:13:54.801Z,69.07
2018-05-02T02:16:23.136Z,68.58
2018-05-02T02:18:51.464Z,69.16
2018-05-02T02:21:19.815Z,69.43
2018-05-02T02:23:48.927Z,69.52
2018-05-02T02:26:17.256Z,69.04
2018-05-02T02:28:46.323Z,68.65
2018-05-02T02:31:14.964Z,68.88
2018-05-02T02:33:43.271Z,69.84
2018-05-02T02:36:11.591Z,69.83
2018-05-02T02:38:39.924Z,69.05
2018-05-02T02:41:08.232Z,69.04
2018-05-02T02:43:36.560Z,68.72
2018-05-02T02:46:04.901Z,68.89
2018-05-02T02:48:33.996Z,68.90
2018-05-02T02:51:03.100Z,68.94
2018-05-02T02:53:31.571Z,68.36
2018-05-02T02:56:00.659Z,69.01
2018-05-02T02:58:29.751Z,69.26
2018-05-02T03:00:58.877Z,69.75
2018-05-02T03:03:27.199Z,70.76
2018-05-02T03:05:55.512Z,70.49
2018-05-02T03:08:24.621Z,70.77
2018-05-02T03:10:52.951Z,70.39
2018-05-02T03:13:21.260Z,71.12
2018-05-02T03:15:50.614Z,70.88
2018-05-02T03:18:18.921Z,70.96
2018-05-02T03:20:47.265Z,71.17
2018-05-02T03:23:15.622Z,72.54
2018-05-02T03:25:43.931Z,72.72
2018-05-02T03:28:12.248Z,73.13
2018-05-02T03:30:40.622Z,72.96
2018-05-02T03:33:08.929Z,72.33
2018-05-02T03:35:37.994Z,72.01
2018-05-02T03:38:06.374Z,71.62
2018-05-02T03:40:34.684Z,71.25
2018-05-02T03:43:02.996Z,70.23
2018-05-02T03:45:31.354Z,70.62
2018-05-02T03:47:59.660Z,70.59
2018-05-02T03:50:27.960Z,70.47
2018-05-02T03:52:56.340Z,70.25
2018-05-02T03:55:25.397Z,70.22
2018-05-02T03:57:53.687Z,69.78
2018-05-02T04:00:39.975Z,70.43
2018-05-02T04:03:25.783Z,71.02
2018-05-02T04:06:10.840Z,70.42
2018-05-02T04:08:39.232Z,70.51
2018-05-02T04:11:07.506Z,69.97
2018-05-02T04:13:35.870Z,69.77
2018-05-02T04:16:04.210Z,69.66
2018-05-02T04:18:32.526Z,69.15
2018-05-02T04:21:01.363Z,69.09
2018-05-02T04:23:30.460Z,69.16
2018-05-02T04:25:58.863Z,70.49
2018-05-02T04:28:27.130Z,70.10
2018-05-02T04:30:56.248Z,70.24
2018-05-02T04:33:24.563Z,70.18
2018-05-02T04:35:52.948Z,70.10
2018-05-02T04:38:21.283Z,69.68
2018-05-02T04:40:49.626Z,69.87
2018-05-02T04:43:18.449Z,69.34
2018-05-02T04:45:46.780Z,69.34
2018-05-02T04:48:15.099Z,68.69
2018-05-02T04:53:18.040Z,67.33
2018-05-02T04:55:46.370Z,67.47
2018-05-02T04:58:15.484Z,66.87
2018-05-02T05:00:43.881Z,69.09
2018-05-02T05:03:12.568Z,68.07
2018-05-02T05:05:40.864Z,67.00
2018-05-02T05:08:09.357Z,66.64
2018-05-02T05:10:37.707Z,66.03
2018-05-02T05:13:06.012Z,65.82
2018-05-02T05:15:34.342Z,65.64
2018-05-02T05:18:02.726Z,65.12
2018-05-02T05:20:31.055Z,64.32
2018-05-02T05:22:59.364Z,64.91
2018-05-02T05:25:28.179Z,63.55
2018-05-02T05:27:56.511Z,63.36
2018-05-02T05:30:24.888Z,62.78
2018-05-02T05:32:53.235Z,62.53
2018-05-02T05:35:21.587Z,61.54
2018-05-02T05:37:49.924Z,60.79
2018-05-02T05:40:18.361Z,61.15
2018-05-02T05:42:46.680Z,60.97
2018-05-02T05:45:15.045Z,59.51
2018-05-02T05:47:43.477Z,59.73
2018-05-02T05:50:11.778Z,60.24
2018-05-02T05:52:40.155Z,59.00
2018-05-02T05:55:08.495Z,58.73
2018-05-02T05:57:37.571Z,59.28
2018-05-02T06:00:05.897Z,58.16
2018-05-02T06:02:34.237Z,57.95
2018-05-02T06:05:02.640Z,57.16
2018-05-02T06:07:30.925Z,56.97
2018-05-02T06:10:00.298Z,55.63
2018-05-02T06:12:28.653Z,56.28
2018-05-02T06:14:57.462Z,55.92
2018-05-02T06:17:26.636Z,55.44
2018-05-02T06:19:54.971Z,53.95
2018-05-02T06:22:24.039Z,53.49
2018-05-02T06:24:52.381Z,52.88
2018-05-02T06:27:20.720Z,51.92
2018-05-02T06:29:49.034Z,51.40
2018-05-02T06:32:17.931Z,50.66
2018-05-02T06:34:46.277Z,48.68
2018-05-02T06:37:14.618Z,49.18
2018-05-02T06:39:42.959Z,48.29
2018-05-02T06:42:11.301Z,48.85
2018-05-02T06:44:40.388Z,47.86
2018-05-02T06:47:09.493Z,47.34
2018-05-02T06:49:38.608Z,46.02
2018-05-02T06:52:06.924Z,46.26
2018-05-02T06:54:36.466Z,44.48
2018-05-02T06:57:04.804Z,45.70
2018-05-02T06:59:33.211Z,44.37
2018-05-02T07:02:01.647Z,45.24
2018-05-02T07:04:29.995Z,44.58
2018-05-02T07:06:58.425Z,43.63
2018-05-02T07:09:26.831Z,43.78
2018-05-02T07:11:55.180Z,43.09
2018-05-02T07:14:23.500Z,43.47
2018-05-02T07:16:52.480Z,43.96
2018-05-02T07:19:20.848Z,43.94
2018-05-02T07:21:49.217Z,43.31
2018-05-02T07:24:17.596Z,42.23
2018-05-02T07:26:46.030Z,41.57
2018-05-02T07:29:15.170Z,42.15
2018-05-02T07:31:43.596Z,41.95
2018-05-02T07:34:12.725Z,41.03
2018-05-02T07:36:41.078Z,41.68
2018-05-02T07:39:09.609Z,40.98
2018-05-02T07:41:37.975Z,39.61
2018-05-02T07:44:06.301Z,38.36
2018-05-02T07:46:34.657Z,39.08
2018-05-02T07:49:02.994Z,38.53
2018-05-02T07:51:31.328Z,38.21
2018-05-02T07:53:59.699Z,37.16
2018-05-02T07:56:28.866Z,37.48
2018-05-02T07:58:57.132Z,37.53
2018-05-02T08:01:25.884Z,37.38
2018-05-02T08:03:54.219Z,37.55
2018-05-02T08:06:22.552Z,37.99
2018-05-02T08:08:51.713Z,37.77
2018-05-02T08:11:20.078Z,37.03
2018-05-02T08:13:48.386Z,36.84
2018-05-02T08:16:16.747Z,36.41
2018-05-02T08:18:45.115Z,36.40
2018-05-02T08:21:13.421Z,36.60
2018-05-02T08:23:42.275Z,36.35
2018-05-02T08:26:10.593Z,35.91
2018-05-02T08:28:38.938Z,35.62
2018-05-02T08:31:07.296Z,35.52
2018-05-02T08:33:35.802Z,35.84
2018-05-02T08:36:04.129Z,35.88
2018-05-02T08:38:32.477Z,36.10
2018-05-02T08:41:00.799Z,35.89
2018-05-02T08:43:29.144Z,35.67
2018-05-02T08:45:57.614Z,35.74
2018-05-02T08:48:25.935Z,34.62
2018-05-02T08:50:55.016Z,33.69
2018-05-02T08:53:23.429Z,34.75
2018-05-02T08:55:51.782Z,34.56
2018-05-02T08:58:20.873Z,34.00
2018-05-02T09:00:49.210Z,33.99
2018-05-02T09:03:17.529Z,34.05
2018-05-02T09:05:45.889Z,32.91
2018-05-02T09:08:14.759Z,32.31
2018-05-02T09:10:43.146Z,32.59
2018-05-02T09:13:11.487Z,33.21
2018-05-02T09:15:39.871Z,33.20
2018-05-02T09:18:09.046Z,33.89
2018-05-02T09:20:37.381Z,34.76
2018-05-02T09:23:05.747Z,34.70
2018-05-02T09:25:34.102Z,34.43
2018-05-02T09:28:02.501Z,33.88
2018-05-02T09:30:31.239Z,34.41
2018-05-02T09:32:59.570Z,33.93
2018-05-02T09:35:27.902Z,34.11
2018-05-02T09:37:57.027Z,34.72
2018-05-02T09:40:25.386Z,34.45
2018-05-02T09:42:54.492Z,33.62
2018-05-02T09:45:23.600Z,34.28
2018-05-02T09:47:51.995Z,33.73
2018-05-02T09:50:20.431Z,33.52
2018-05-02T09:52:49.055Z,34.02
2018-05-02T09:55:17.393Z,33.52
2018-05-02T09:57:45.716Z,33.33
2018-05-02T10:00:14.089Z,32.84
2018-05-02T10:02:42.394Z,31.37
2018-05-02T10:05:10.702Z,31.57
2018-05-02T10:07:39.120Z,32.14
2018-05-02T10:10:07.464Z,32.36
2018-05-02T10:12:36.567Z,31.55
2018-05-02T10:15:06.204Z,32.27
2018-05-02T10:17:34.550Z,32.38
2018-05-02T10:20:02.927Z,31.57
2018-05-02T10:22:31.269Z,30.96
2018-05-02T10:24:59.684Z,30.92
2018-05-02T10:27:28.039Z,31.26
2018-05-02T10:29:56.770Z,32.39
2018-05-02T10:32:25.134Z,32.04
2018-05-02T10:34:53.499Z,31.02
2018-05-02T10:37:21.983Z,30.53
2018-05-02T10:39:50.326Z,31.22
2018-05-02T10:42:18.658Z,31.31
2018-05-02T10:44:47.006Z,31.54
2018-05-02T10:47:15.336Z,31.75
2018-05-02T10:49:44.455Z,30.70
2018-05-02T10:52:12.838Z,29.90
2018-05-02T10:54:41.162Z,29.31
2018-05-02T10:57:09.511Z,30.51
2018-05-02T10:59:39.062Z,30.40
2018-05-02T11:02:07.413Z,30.25
2018-05-02T11:04:35.795Z,29.55
2018-05-02T11:07:04.181Z,29.24
2018-05-02T11:09:33.386Z,29.54
2018-05-02T11:12:01.760Z,29.12
2018-05-02T11:14:30.168Z,29.12
2018-05-02T11:16:59.250Z,29.15
2018-05-02T11:19:27.572Z,29.64
2018-05-02T11:21:57.416Z,29.64
2018-05-02T11:24:25.696Z,29.76
2018-05-02T11:26:54.038Z,30.99
2018-05-02T11:29:22.417Z,30.81
2018-05-02T11:31:50.734Z,30.64
2018-05-02T11:34:19.083Z,30.06
2018-05-02T11:36:47.427Z,29.72
2018-05-02T11:39:15.797Z,29.91
2018-05-02T11:41:44.912Z,29.98
2018-05-02T11:44:13.743Z,29.41
2018-05-02T11:46:42.121Z,28.35
2018-05-02T11:49:10.468Z,27.47
2018-05-02T11:51:38.827Z,27.85
2018-05-02T11:54:08.169Z,27.51
2018-05-02T11:56:36.571Z,27.43
2018-05-02T11:59:04.997Z,29.13
2018-05-02T12:01:33.376Z,29.23
2018-05-02T12:04:01.736Z,29.17
2018-05-02T12:06:30.205Z,28.19
2018-05-02T12:08:58.567Z,28.50
2018-05-02T12:11:26.956Z,27.91
2018-05-02T12:13:55.403Z,28.75
2018-05-02T12:16:23.759Z,27.88
2018-05-02T12:18:52.856Z,28.16
2018-05-02T12:21:21.991Z,29.60
2018-05-02T12:23:50.330Z,29.82
2018-05-02T12:26:18.676Z,29.15
2018-05-02T12:28:47.572Z,29.37
2018-05-02T12:31:15.885Z,29.90
2018-05-02T12:33:44.257Z,28.67
2018-05-02T12:36:13.072Z,29.07
2018-05-02T12:38:41.478Z,28.50
2018-05-02T12:41:09.928Z,27.64
2018-05-02T12:43:38.230Z,26.83
2018-05-02T12:46:06.568Z,27.96
2018-05-02T12:48:34.918Z,28.29
2018-05-02T12:51:03.508Z,29.01
2018-05-02T12:53:31.840Z,29.00
2018-05-02T12:56:00.275Z,28.95
2018-05-02T12:58:28.635Z,29.46
2018-05-02T13:00:57.003Z,29.74
2018-05-02T13:03:25.319Z,29.35
2018-05-02T13:05:54.473Z,29.68
2018-05-02T13:08:22.799Z,29.89
2018-05-02T13:10:51.934Z,29.63
2018-05-02T13:13:20.787Z,30.72
2018-05-02T13:15:49.873Z,30.10
2018-05-02T13:18:18.220Z,29.05
2018-05-02T13:20:47.340Z,29.08
2018-05-02T13:23:15.671Z,29.13
2018-05-02T13:25:44.069Z,29.39
2018-05-02T13:28:12.428Z,29.15
2018-05-02T13:30:40.796Z,29.30
2018-05-02T13:33:09.144Z,29.32
2018-05-02T13:35:38.562Z,29.39
2018-05-02T13:38:06.953Z,30.18
2018-05-02T13:40:35.319Z,29.57
2018-05-02T13:43:03.687Z,29.03
2018-05-02T13:45:32.848Z,29.63
2018-05-02T13:48:01.201Z,29.88
2018-05-02T13:50:29.540Z,29.88
2018-05-02T13:52:58.650Z,29.43
2018-05-02T13:55:27.899Z,30.24
2018-05-02T13:57:56.325Z,30.20
2018-05-02T14:00:25.509Z,30.37
2018-05-02T14:02:54.596Z,29.87
2018-05-02T14:05:22.972Z,30.28
2018-05-02T14:07:51.288Z,30.52
2018-05-02T14:10:19.617Z,30.88
2018-05-02T14:12:48.744Z,31.27
2018-05-02T14:15:17.867Z,31.29
2018-05-02T14:17:46.186Z,31.45
2018-05-02T14:20:15.281Z,32.46
2018-05-02T14:22:43.597Z,31.55
2018-05-02T14:25:12.689Z,31.32
2018-05-02T14:27:41.099Z,31.63
2018-05-02T14:30:09.411Z,30.86
2018-05-02T14:32:37.778Z,30.58
2018-05-02T14:35:06.194Z,31.04
2018-05-02T14:37:34.529Z,31.94
2018-05-02T14:40:02.885Z,32.36
2018-05-02T14:42:32.111Z,32.62
2018-05-02T14:45:00.461Z,32.09
2018-05-02T14:47:29.623Z,31.40
2018-05-02T14:49:57.988Z,32.21
2018-05-02T14:52:26.384Z,32.49
2018-05-02T14:54:55.520Z,31.78
2018-05-02T14:57:23.886Z,32.32
2018-05-02T14:59:52.984Z,32.88
2018-05-02T15:02:22.152Z,32.61
2018-05-02T15:04:50.834Z,33.16
2018-05-02T15:07:19.225Z,33.06
2018-05-02T15:09:47.560Z,33.13
2018-05-02T15:12:16.001Z,33.04
2018-05-02T15:14:45.134Z,33.38
2018-05-02T15:17:13.471Z,33.75
2018-05-02T15:19:41.832Z,33.68
2018-05-02T15:22:10.191Z,34.00
2018-05-02T15:24:38.551Z,33.60
2018-05-02T15:27:07.048Z,34.09
2018-05-02T15:29:35.372Z,34.25
2018-05-02T15:32:04.478Z,33.56
2018-05-02T15:34:33.681Z,33.77
2018-05-02T15:37:02.010Z,33.98
2018-05-02T15:39:30.409Z,33.89
2018-05-02T15:41:58.800Z,33.47
2018-05-02T15:44:27.129Z,33.17
2018-05-02T15:46:55.469Z,33.88
2018-05-02T15:49:24.488Z,33.44
2018-05-02T15:51:52.774Z,33.85
2018-05-02T15:54:21.138Z,35.70
2018-05-02T15:56:49.504Z,37.33
2018-05-02T15:59:18.639Z,37.54
2018-05-02T16:01:46.981Z,37.25
2018-05-02T16:04:16.147Z,38.31
2018-05-02T16:06:44.504Z,38.07
2018-05-02T16:09:12.846Z,38.19
2018-05-02T16:11:41.716Z,38.53
2018-05-02T16:14:10.028Z,39.29
2018-05-02T16:16:38.398Z,39.65
2018-05-02T16:19:06.795Z,39.41
2018-05-02T16:21:35.132Z,39.27
2018-05-02T16:24:03.479Z,39.57
2018-05-02T16:26:31.814Z,39.57
2018-05-02T16:29:00.941Z,39.80
2018-05-02T16:31:29.260Z,40.23
2018-05-02T16:33:57.920Z,40.23
2018-05-02T16:36:26.259Z,40.42
2018-05-02T16:38:54.596Z,40.26
2018-05-02T16:41:22.935Z,40.33
2018-05-02T16:43:51.260Z,41.23
2018-05-02T16:46:19.680Z,41.49
2018-05-02T16:48:48.055Z,41.31
2018-05-02T16:51:16.406Z,40.96
2018-05-02T16:53:44.715Z,41.46
2018-05-02T16:56:13.574Z,41.63
2018-05-02T16:58:41.937Z,41.54
2018-05-02T17:01:10.311Z,41.70
2018-05-02T17:03:38.666Z,42.15
2018-05-02T17:06:07.748Z,42.46
2018-05-02T17:08:36.082Z,42.56
2018-05-02T17:11:05.249Z,42.48
2018-05-02T17:13:33.615Z,42.07
2018-05-02T17:16:02.121Z,42.37
2018-05-02T17:18:30.759Z,43.39
2018-05-02T17:20:59.206Z,43.31
2018-05-02T17:23:27.539Z,43.16
2018-05-02T17:25:55.890Z,43.19
2018-05-02T17:28:24.984Z,43.43
2018-05-02T17:30:54.070Z,43.22
2018-05-02T17:33:23.193Z,43.33
2018-05-02T17:35:51.592Z,42.94
2018-05-02T17:38:19.934Z,43.53
2018-05-02T17:40:49.354Z,42.99
2018-05-02T17:43:17.677Z,44.39
2018-05-02T17:45:46.023Z,44.61
2018-05-02T17:48:14.403Z,44.36
2018-05-02T17:50:43.509Z,44.39
2018-05-02T17:53:11.836Z,44.26
2018-05-02T17:55:40.960Z,44.62
2018-05-02T17:58:09.301Z,44.42
2018-05-02T18:00:37.688Z,44.72
2018-05-02T18:03:06.964Z,44.43
2018-05-02T18:05:35.329Z,45.03
2018-05-02T18:08:03.676Z,45.27
2018-05-02T18:10:32.116Z,46.18
2018-05-02T18:13:00.423Z,45.59
2018-05-02T18:15:29.525Z,46.03
2018-05-02T18:17:57.890Z,45.83
2018-05-02T18:20:26.991Z,45.71
2018-05-02T18:22:56.128Z,45.36
2018-05-02T18:25:24.854Z,45.36
2018-05-02T18:27:53.244Z,45.39
2018-05-02T18:30:22.508Z,45.67
2018-05-02T18:32:50.893Z,45.59
2018-05-02T18:35:19.217Z,45.72
2018-05-02T18:37:47.516Z,45.65
2018-05-02T18:40:15.855Z,45.54
2018-05-02T18:42:44.204Z,45.76
2018-05-02T18:45:12.536Z,46.29
2018-05-02T18:47:41.223Z,46.65
2018-05-02T18:50:09.570Z,46.93
2018-05-02T18:52:37.873Z,47.20
2018-05-02T18:55:07.016Z,47.45
2018-05-02T18:57:35.330Z,47.12
2018-05-02T19:00:03.771Z,47.13
2018-05-02T19:02:32.106Z,47.02
2018-05-02T19:05:01.175Z,47.23
2018-05-02T19:07:29.475Z,47.51
2018-05-02T19:09:58.151Z,47.91
2018-05-02T19:12:26.486Z,47.45
2018-05-02T19:14:54.804Z,47.21
2018-05-02T19:17:23.147Z,47.25
2018-05-02T19:19:57.120Z,47.54
2018-05-02T19:22:26.305Z,47.82
2018-05-02T19:25:00.358Z,48.00
2018-05-02T19:27:29.298Z,47.84
2018-05-02T19:29:58.393Z,47.63
2018-05-02T19:32:32.169Z,47.56
2018-05-02T19:35:00.538Z,47.75
2018-05-02T19:37:28.871Z,47.79
2018-05-02T19:40:02.844Z,47.84
2018-05-02T19:42:36.588Z,47.93
2018-05-02T19:45:05.476Z,47.83
2018-05-02T19:47:33.755Z,48.00
2018-05-02T19:50:02.917Z,48.11
2018-05-02T19:52:36.865Z,48.09
2018-05-02T19:55:05.328Z,48.25
2018-05-02T19:57:33.690Z,48.30
2018-05-02T20:00:02.120Z,48.24
2018-05-02T20:02:36.754Z,48.60
2018-05-02T20:05:05.468Z,48.62
2018-05-02T20:07:39.328Z,48.79
2018-05-02T20:10:13.259Z,49.15
2018-05-02T20:12:47.045Z,48.98
2018-05-02T20:15:16.195Z,48.60
2018-05-02T20:17:44.534Z,48.74
2018-05-02T20:20:13.661Z,48.75
2018-05-02T20:22:42.337Z,48.81
2018-05-02T20:25:10.693Z,49.05
2018-05-02T20:27:39.058Z,49.32
2018-05-02T20:30:07.431Z,49.15
2018-05-02T20:32:35.797Z,48.88
2018-05-02T20:35:04.143Z,48.78
2018-05-02T20:37:32.513Z,48.95
2018-05-02T20:40:00.827Z,49.00
2018-05-02T20:42:29.198Z,49.47
2018-05-02T20:44:58.036Z,49.79
2018-05-02T20:47:26.376Z,49.93
2018-05-02T20:49:54.733Z,50.22
2018-05-02T20:52:23.103Z,50.51
2018-05-02T20:54:51.496Z,50.84
2018-05-02T20:57:19.764Z,50.72
2018-05-02T20:59:48.148Z,50.64
2018-05-02T21:02:16.516Z,50.77
2018-05-02T21:04:44.886Z,51.34
2018-05-02T21:07:13.615Z,51.49
2018-05-02T21:09:42.016Z,50.83
2018-05-02T21:12:10.331Z,50.71
2018-05-02T21:14:38.707Z,50.86
2018-05-02T21:17:07.031Z,51.46
2018-05-02T21:19:35.561Z,52.13
2018-05-02T21:22:03.887Z,53.26
2018-05-02T21:24:33.032Z,53.14
2018-05-02T21:27:01.421Z,53.26
2018-05-02T21:29:30.345Z,53.04
2018-05-02T21:31:58.853Z,53.00
2018-05-02T21:34:28.030Z,53.31
2018-05-02T21:36:56.471Z,53.41
2018-05-02T21:39:24.783Z,53.23
2018-05-02T21:41:53.159Z,52.70
2018-05-02T21:44:21.542Z,52.63
2018-05-02T21:46:49.856Z,52.89
2018-05-02T21:49:18.221Z,52.94
2018-05-02T21:51:47.097Z,52.62
2018-05-02T21:54:15.419Z,52.41
2018-05-02T21:56:44.529Z,52.61
2018-05-02T21:59:13.673Z,53.00
2018-05-02T22:01:42.006Z,52.69
2018-05-02T22:04:10.351Z,53.29
2018-05-02T22:06:38.682Z,53.09
2018-05-02T22:09:07.066Z,53.37
2018-05-02T22:11:36.200Z,53.59
2018-05-02T22:14:04.639Z,53.52
2018-05-02T22:16:32.958Z,54.48
2018-05-02T22:19:01.311Z,54.13
2018-05-02T22:21:29.712Z,53.83
2018-05-02T22:23:58.061Z,53.85
2018-05-02T22:26:26.412Z,53.52
2018-05-02T22:28:54.790Z,53.73
2018-05-02T22:31:23.884Z,54.17
2018-05-02T22:33:52.961Z,54.91
2018-05-02T22:36:21.495Z,55.21
2018-05-02T22:38:49.802Z,55.77
2018-05-02T22:41:18.117Z,56.15
2018-05-02T22:43:46.499Z,56.48
2018-05-02T22:46:14.838Z,55.88
2018-05-02T22:48:43.265Z,56.34
2018-05-02T22:51:11.600Z,56.10
2018-05-02T22:53:39.915Z,56.43
2018-05-02T22:56:08.261Z,57.68
2018-05-02T22:58:37.267Z,57.97
2018-05-02T23:01:05.610Z,57.99
2018-05-02T23:03:33.995Z,57.49
2018-05-02T23:06:02.407Z,57.12
2018-05-02T23:08:31.531Z,57.29
2018-05-02T23:10:59.861Z,57.44
2018-05-02T23:13:28.238Z,57.33
2018-05-02T23:15:56.537Z,56.77
2018-05-02T23:18:24.970Z,56.54
2018-05-02T23:20:53.672Z,56.48
2018-05-02T23:23:21.992Z,57.07
2018-05-02T23:25:50.303Z,57.66
2018-05-02T23:28:18.668Z,57.51
2018-05-02T23:30:47.744Z,57.71
2018-05-02T23:33:16.048Z,57.74
2018-05-02T23:35:44.427Z,57.90
2018-05-02T23:38:12.758Z,58.06
2018-05-02T23:40:41.109Z,58.66
2018-05-02T23:43:09.534Z,59.56
2018-05-02T23:45:37.866Z,59.53
2018-05-02T23:48:06.226Z,59.34
2018-05-02T23:50:34.623Z,59.69
2018-05-02T23:53:02.978Z,59.75
2018-05-02T23:55:31.311Z,59.79
2018-05-02T23:57:59.755Z,59.14
